Sun Princess — ZCBU6 — position and weather

sailwx.info

Track history (hours):
 
Tides and Currents Weather Stations Pressure Air Temp Water Temp Dewpoint Dewpoint Depression Visibility Wind Speed Wind Dir Waves Ship Positions

Sun Princess

Operator: Princess Cruises

Last reported at 2017-Jun-20 08:29 UTC. Time now 2017-Jun-26 10:37 UTC.
Position S 22°24' E 166°47'.

Length 261.3 m; beam 32.3 m; draft 8.1 m.

Type: Passenger vessel. MMSI: 310438000.

Date/timePositionNaut miles runAvg speedWind from/ knotsBaromVisibWave heightAir tempDewpointWater temp
2017-Jun-20 08:29S 22°24' E 166°47'817.6
2017-Jun-20 08:00S 22°23' E 166°38'917.5
2017-Jun-20 07:30S 22°20' E 166°29'815.3
2017-Jun-20 07:00S 22°15' E 166°23'3 6.1
2017-Jun-20 06:30S 22°16' E 166°26'0 0.4
2017-Jun-20 06:00S 22°16' E 166°26'0 0.0
2017-Jun-20 05:27S 22°16' E 166°26'0 0.0
2017-Jun-20 05:00S 22°16' E 166°26'0 0.0
2017-Jun-20 04:30S 22°16' E 166°26'0 0.0
2017-Jun-20 04:00S 22°16' E 166°26'0 0.0
2017-Jun-20 03:24S 22°16' E 166°26'0 0.0
2017-Jun-20 03:00S 22°16' E 166°26'0 0.0
2017-Jun-20 02:30S 22°16' E 166°26'0 0.0
2017-Jun-20 02:00S 22°16' E 166°26'0 0.0
2017-Jun-20 01:30S 22°16' E 166°26'0 0.0
2017-Jun-20 01:00S 22°16' E 166°26'0 0.0
2017-Jun-20 00:30S 22°16' E 166°26'0 0.0
2017-Jun-20 00:00S 22°16' E 166°26'0 0.0
2017-Jun-19 23:30S 22°16' E 166°26'0 0.0
2017-Jun-19 23:00S 22°16' E 166°26'0 0.0
2017-Jun-19 22:30S 22°16' E 166°26'0 0.0
2017-Jun-19 22:00S 22°16' E 166°26'0 0.0
2017-Jun-19 21:30S 22°16' E 166°26'0 0.0
2017-Jun-19 21:00S 22°16' E 166°26'0 0.2
2017-Jun-19 20:30S 22°16' E 166°26'3 6.2
2017-Jun-19 20:01S 22°15' E 166°23'816.3
2017-Jun-19 19:30S 22°20' E 166°17'612.9
2017-Jun-19 19:00S 22°25' E 166°11'612.3
2017-Jun-19 18:30S 22°29' E 166°07'812.4
2017-Jun-19 17:53S 22°34' E 166°00'  
2017-Jun-17 13:41S 32°39' E 152°60'317.3
2017-Jun-17 13:30S 32°41' E 152°57'1116.9
2017-Jun-17 12:51S 32°48' E 152°47'616.6
2017-Jun-17 12:30S 32°52' E 152°42'816.5
2017-Jun-17 12:01S 32°57' E 152°35'917.2
2017-Jun-17 11:30S 33°02' E 152°26'4318.0
2017-Jun-17 09:06S 33°31' E 151°48'718.6
2017-Jun-17 08:44S 33°36' E 151°42'717.5
2017-Jun-17 08:20S 33°40' E 151°35'514.5
2017-Jun-17 08:00S 33°44' E 151°31'713.4
2017-Jun-17 07:31S 33°48' E 151°25'5 0.4
2017-Jun-16 19:14S 33°50' E 151°20'311.4
2017-Jun-16 19:01S 33°49' E 151°23'611.1
2017-Jun-16 18:31S 33°46' E 151°28'612.6
2017-Jun-16 18:01S 33°41' E 151°34'612.6
2017-Jun-16 17:30S 33°37' E 151°39'612.6
2017-Jun-16 17:00S 33°33' E 151°45'1713.0
2017-Jun-16 15:41S 33°22' E 152°00'212.9
2017-Jun-16 15:30S 33°20' E 152°03'912.8
2017-Jun-16 14:50S 33°15' E 152°11'411.8
2017-Jun-16 14:30S 33°12' E 152°14'1212.2
2017-Jun-16 13:30S 33°04' E 152°25'612.0
2017-Jun-16 13:01S 33°00' E 152°30'612.3
2017-Jun-16 12:31S 32°56' E 152°36'612.5
2017-Jun-16 12:00S 32°52' E 152°41'714.3
2017-Jun-16 11:30S 32°47' E 152°48'714.0
2017-Jun-16 11:00S 32°43' E 152°54'815.9
2017-Jun-16 10:30S 32°37' E 153°01'91918.3
2017-Jun-14 08:14S 22°33' E 166°01'418.0
2017-Jun-14 08:00S 22°30' E 166°05'918.3
2017-Jun-14 07:30S 22°24' E 166°12'815.3
2017-Jun-14 07:01S 22°19' E 166°18'713.7
2017-Jun-14 06:31S 22°15' E 166°24'2 3.6
2017-Jun-14 05:59S 22°16' E 166°26'0 0.0
2017-Jun-14 05:29S 22°16' E 166°26'0 0.0
2017-Jun-14 04:56S 22°16' E 166°26'0 0.0
2017-Jun-14 04:29S 22°16' E 166°26'0 0.0
2017-Jun-14 03:59S 22°16' E 166°26'0 0.0
2017-Jun-14 03:26S 22°16' E 166°26'0 0.0
2017-Jun-14 02:59S 22°16' E 166°26'0 0.0
2017-Jun-14 02:26S 22°16' E 166°26'0 0.0
2017-Jun-14 01:59S 22°16' E 166°26'0 0.0
2017-Jun-14 01:29S 22°16' E 166°26'0 0.0
2017-Jun-14 00:56S 22°16' E 166°26'0 0.0
2017-Jun-14 00:29S 22°16' E 166°26'0 0.0
2017-Jun-13 23:59S 22°16' E 166°26'0 0.0
2017-Jun-13 23:29S 22°16' E 166°26'0 0.0
2017-Jun-13 22:59S 22°16' E 166°26'0 0.0
2017-Jun-13 22:29S 22°16' E 166°26'0 0.0
2017-Jun-13 21:59S 22°16' E 166°26'0 0.0
2017-Jun-13 21:29S 22°16' E 166°26'0 0.0
2017-Jun-13 20:59S 22°16' E 166°26'0 0.4
2017-Jun-13 20:30S 22°16' E 166°26'2 4.3
2017-Jun-13 20:00S 22°15' E 166°24'612.1
2017-Jun-13 19:30S 22°20' E 166°27'816.4
2017-Jun-13 19:00S 22°22' E 166°35'816.6
2017-Jun-13 18:30S 22°24' E 166°44'  
Track history (hours):
 
Tides and Currents Weather Stations Pressure Air Temp Water Temp Dewpoint Dewpoint Depression Visibility Wind Speed Wind Dir Waves Ship Positions

Sun Princess

Operator: Princess Cruises

Last reported at 2017-Jun-20 08:29 UTC. Time now 2017-Jun-26 10:37 UTC.
Position S 22°24' E 166°47'.

Length 261.3 m; beam 32.3 m; draft 8.1 m.

Type: Passenger vessel. MMSI: 310438000.

Date/timePositionNaut miles runAvg speedWind from/ knotsBaromVisibWave heightAir tempDewpointWater temp
2017-Jun-20 08:29S 22°24' E 166°47'817.6
2017-Jun-20 08:00S 22°23' E 166°38'917.5
2017-Jun-20 07:30S 22°20' E 166°29'815.3
2017-Jun-20 07:00S 22°15' E 166°23'3 6.1
2017-Jun-20 06:30S 22°16' E 166°26'0 0.4
2017-Jun-20 06:00S 22°16' E 166°26'0 0.0
2017-Jun-20 05:27S 22°16' E 166°26'0 0.0
2017-Jun-20 05:00S 22°16' E 166°26'0 0.0
2017-Jun-20 04:30S 22°16' E 166°26'0 0.0
2017-Jun-20 04:00S 22°16' E 166°26'0 0.0
2017-Jun-20 03:24S 22°16' E 166°26'0 0.0
2017-Jun-20 03:00S 22°16' E 166°26'0 0.0
2017-Jun-20 02:30S 22°16' E 166°26'0 0.0
2017-Jun-20 02:00S 22°16' E 166°26'0 0.0
2017-Jun-20 01:30S 22°16' E 166°26'0 0.0
2017-Jun-20 01:00S 22°16' E 166°26'0 0.0
2017-Jun-20 00:30S 22°16' E 166°26'0 0.0
2017-Jun-20 00:00S 22°16' E 166°26'0 0.0
2017-Jun-19 23:30S 22°16' E 166°26'0 0.0
2017-Jun-19 23:00S 22°16' E 166°26'0 0.0
2017-Jun-19 22:30S 22°16' E 166°26'0 0.0
2017-Jun-19 22:00S 22°16' E 166°26'0 0.0
2017-Jun-19 21:30S 22°16' E 166°26'0 0.0
2017-Jun-19 21:00S 22°16' E 166°26'0 0.2
2017-Jun-19 20:30S 22°16' E 166°26'3 6.2
2017-Jun-19 20:01S 22°15' E 166°23'816.3
2017-Jun-19 19:30S 22°20' E 166°17'612.9
2017-Jun-19 19:00S 22°25' E 166°11'612.3
2017-Jun-19 18:30S 22°29' E 166°07'812.4
2017-Jun-19 17:53S 22°34' E 166°00'  
2017-Jun-17 13:41S 32°39' E 152°60'317.3
2017-Jun-17 13:30S 32°41' E 152°57'1116.9
2017-Jun-17 12:51S 32°48' E 152°47'616.6
2017-Jun-17 12:30S 32°52' E 152°42'816.5
2017-Jun-17 12:01S 32°57' E 152°35'917.2
2017-Jun-17 11:30S 33°02' E 152°26'4318.0
2017-Jun-17 09:06S 33°31' E 151°48'718.6
2017-Jun-17 08:44S 33°36' E 151°42'717.5
2017-Jun-17 08:20S 33°40' E 151°35'514.5
2017-Jun-17 08:00S 33°44' E 151°31'713.4
2017-Jun-17 07:31S 33°48' E 151°25'5 0.4
2017-Jun-16 19:14S 33°50' E 151°20'311.4
2017-Jun-16 19:01S 33°49' E 151°23'611.1
2017-Jun-16 18:31S 33°46' E 151°28'612.6
2017-Jun-16 18:01S 33°41' E 151°34'612.6
2017-Jun-16 17:30S 33°37' E 151°39'612.6
2017-Jun-16 17:00S 33°33' E 151°45'1713.0
2017-Jun-16 15:41S 33°22' E 152°00'212.9
2017-Jun-16 15:30S 33°20' E 152°03'912.8
2017-Jun-16 14:50S 33°15' E 152°11'411.8
2017-Jun-16 14:30S 33°12' E 152°14'1212.2
2017-Jun-16 13:30S 33°04' E 152°25'612.0
2017-Jun-16 13:01S 33°00' E 152°30'612.3
2017-Jun-16 12:31S 32°56' E 152°36'612.5
2017-Jun-16 12:00S 32°52' E 152°41'714.3
2017-Jun-16 11:30S 32°47' E 152°48'714.0
2017-Jun-16 11:00S 32°43' E 152°54'815.9
2017-Jun-16 10:30S 32°37' E 153°01'91918.3
2017-Jun-14 08:14S 22°33' E 166°01'418.0
2017-Jun-14 08:00S 22°30' E 166°05'918.3
2017-Jun-14 07:30S 22°24' E 166°12'815.3
2017-Jun-14 07:01S 22°19' E 166°18'713.7
2017-Jun-14 06:31S 22°15' E 166°24'2 3.6
2017-Jun-14 05:59S 22°16' E 166°26'0 0.0
2017-Jun-14 05:29S 22°16' E 166°26'0 0.0
2017-Jun-14 04:56S 22°16' E 166°26'0 0.0
2017-Jun-14 04:29S 22°16' E 166°26'0 0.0
2017-Jun-14 03:59S 22°16' E 166°26'0 0.0
2017-Jun-14 03:26S 22°16' E 166°26'0 0.0
2017-Jun-14 02:59S 22°16' E 166°26'0 0.0
2017-Jun-14 02:26S 22°16' E 166°26'0 0.0
2017-Jun-14 01:59S 22°16' E 166°26'0 0.0
2017-Jun-14 01:29S 22°16' E 166°26'0 0.0
2017-Jun-14 00:56S 22°16' E 166°26'0 0.0
2017-Jun-14 00:29S 22°16' E 166°26'0 0.0
2017-Jun-13 23:59S 22°16' E 166°26'0 0.0
2017-Jun-13 23:29S 22°16' E 166°26'0 0.0
2017-Jun-13 22:59S 22°16' E 166°26'0 0.0
2017-Jun-13 22:29S 22°16' E 166°26'0 0.0
2017-Jun-13 21:59S 22°16' E 166°26'0 0.0
2017-Jun-13 21:29S 22°16' E 166°26'0 0.0
2017-Jun-13 20:59S 22°16' E 166°26'0 0.4
2017-Jun-13 20:30S 22°16' E 166°26'2 4.3
2017-Jun-13 20:00S 22°15' E 166°24'612.1
2017-Jun-13 19:30S 22°20' E 166°27'816.4
2017-Jun-13 19:00S 22°22' E 166°35'816.6
2017-Jun-13 18:30S 22°24' E 166°44'  

Dump ship's entire track history